Time;durP1;ratioP1;P1;durP2;ratioP2;P2;SDS_P1;SDS_P2;PMS_P1;PMS_P2;Temp;Humidity;BMP_temperature;BMP_pressure;BME280_temperature;BME280_humidity;BME280_pressure;Samples;Min_cycle;Max_cycle;Signal;HPM_P1;HPM_P2
2024/03/17 00:02:09;;;;;;;30.35;6.88;;;4.80;99.90;;;;;;5051704;28;20041;-73
2024/03/17 00:04:34;;;;;;;45.45;7.60;;;4.70;99.90;;;;;;5050825;28;20021;-74
2024/03/17 00:07:00;;;;;;;41.38;7.65;;;4.70;99.90;;;;;;5052527;28;20073;-73
2024/03/17 00:09:26;;;;;;;32.92;7.40;;;4.60;99.90;;;;;;5051605;28;20040;-76
2024/03/17 00:11:51;;;;;;;37.38;7.03;;;4.70;99.90;;;;;;5052873;28;20105;-74
2024/03/17 00:14:18;;;;;;;31.85;7.25;;;4.70;99.90;;;;;;5052116;28;20040;-75
2024/03/17 00:16:44;;;;;;;38.47;6.43;;;4.70;99.90;;;;;;5050433;28;20017;-74
2024/03/17 00:19:10;;;;;;;24.90;6.10;;;4.60;99.90;;;;;;5052438;28;20043;-75
2024/03/17 00:21:35;;;;;;;30.23;6.50;;;4.60;99.90;;;;;;5050174;28;20033;-75
2024/03/17 00:24:02;;;;;;;30.23;7.57;;;4.60;99.90;;;;;;5051384;28;20018;-76
2024/03/17 00:26:29;;;;;;;26.02;6.93;;;4.60;99.90;;;;;;5052052;28;20017;-76
2024/03/17 00:28:54;;;;;;;34.70;6.88;;;4.60;99.90;;;;;;5050935;28;20033;-75
2024/03/17 00:31:23;;;;;;;25.90;6.50;;;4.60;99.90;;;;;;5050159;28;20040;-76
2024/03/17 00:33:52;;;;;;;34.03;7.47;;;4.60;99.90;;;;;;5050612;28;20116;-77
2024/03/17 00:36:19;;;;;;;34.03;8.30;;;4.50;99.90;;;;;;5052188;28;20075;-74
2024/03/17 00:38:44;;;;;;;35.30;6.43;;;4.50;99.90;;;;;;5051517;28;20048;-74
2024/03/17 00:41:10;;;;;;;35.92;7.10;;;4.50;99.90;;;;;;5051954;28;20033;-76
2024/03/17 00:43:36;;;;;;;38.00;7.25;;;4.50;99.90;;;;;;5050533;28;20360;-75
2024/03/17 00:46:02;;;;;;;33.75;6.43;;;4.50;99.90;;;;;;5051377;28;20013;-75
2024/03/17 00:48:28;;;;;;;32.53;6.47;;;4.40;99.90;;;;;;5051714;28;20090;-75
2024/03/17 00:50:58;;;;;;;35.20;6.68;;;4.40;99.90;;;;;;5051360;28;20034;-76
2024/03/17 00:53:24;;;;;;;38.75;6.72;;;4.30;99.90;;;;;;5050078;28;20048;-75
2024/03/17 00:55:54;;;;;;;30.77;7.45;;;4.40;99.90;;;;;;5051419;28;20037;-74
2024/03/17 00:58:22;;;;;;;35.08;7.55;;;4.30;99.90;;;;;;5051332;28;20078;-76
2024/03/17 01:00:49;;;;;;;24.48;6.50;;;4.30;99.90;;;;;;5051748;28;20485;-77
2024/03/17 01:03:19;;;;;;;32.55;7.30;;;4.30;99.90;;;;;;5049750;28;20057;-76
2024/03/17 01:05:47;;;;;;;30.83;6.38;;;4.30;99.90;;;;;;5049922;28;20045;-75
2024/03/17 01:08:16;;;;;;;32.50;7.45;;;4.20;99.90;;;;;;5050156;28;20022;-75
2024/03/17 01:10:42;;;;;;;38.47;7.10;;;4.20;99.90;;;;;;5050186;28;20060;-75
2024/03/17 01:13:09;;;;;;;33.25;6.95;;;4.20;99.90;;;;;;5050696;28;20041;-74
2024/03/17 01:15:36;;;;;;;31.20;7.18;;;4.20;99.90;;;;;;5050453;28;20029;-76
2024/03/17 01:18:04;;;;;;;31.95;7.32;;;4.20;99.90;;;;;;5049785;28;20048;-75
2024/03/17 01:20:30;;;;;;;44.08;7.22;;;4.10;99.90;;;;;;5051500;28;20029;-73
2024/03/17 01:22:56;;;;;;;33.08;6.20;;;4.10;99.90;;;;;;5051195;28;20041;-75
2024/03/17 01:25:21;;;;;;;28.88;6.05;;;4.10;99.90;;;;;;5049997;28;20029;-74
2024/03/17 01:27:47;;;;;;;30.88;7.13;;;4.10;99.90;;;;;;5051231;28;20018;-75
2024/03/17 01:30:13;;;;;;;40.50;7.25;;;4.10;99.90;;;;;;5051010;28;20036;-74
2024/03/17 01:32:38;;;;;;;35.80;7.45;;;4.10;99.90;;;;;;5049745;28;20045;-75
2024/03/17 01:35:05;;;;;;;34.63;6.72;;;4.20;99.90;;;;;;5050825;28;20393;-74
2024/03/17 01:37:31;;;;;;;26.75;6.65;;;4.20;99.90;;;;;;5051147;28;20044;-74
2024/03/17 01:39:58;;;;;;;31.58;7.22;;;4.30;99.90;;;;;;5051065;28;20051;-74
2024/03/17 01:42:23;;;;;;;30.50;6.63;;;4.20;99.90;;;;;;5049677;28;20093;-75
2024/03/17 01:44:50;;;;;;;36.63;7.43;;;4.20;99.90;;;;;;5049768;28;20076;-77
2024/03/17 01:47:18;;;;;;;27.67;7.28;;;4.10;99.90;;;;;;5052417;28;20026;-76
2024/03/17 01:49:48;;;;;;;38.72;8.27;;;4.10;99.90;;;;;;5051231;28;20047;-74
2024/03/17 01:52:15;;;;;;;43.08;8.85;;;4.10;99.90;;;;;;5051577;28;20037;-74
2024/03/17 01:54:42;;;;;;;33.53;8.75;;;4.10;99.90;;;;;;5049493;28;20041;-73
2024/03/17 01:57:08;;;;;;;31.73;8.10;;;4.20;99.90;;;;;;5049378;28;20116;-76
2024/03/17 01:59:33;;;;;;;28.98;7.68;;;4.10;99.90;;;;;;5049255;28;20052;-76
2024/03/17 02:01:59;;;;;;;23.83;6.80;;;4.10;99.90;;;;;;5050428;28;20053;-76
2024/03/17 02:04:25;;;;;;;34.17;7.80;;;4.00;99.90;;;;;;5050959;28;20030;-76
2024/03/17 02:06:51;;;;;;;40.30;8.35;;;4.00;99.90;;;;;;5050162;28;20028;-75
2024/03/17 02:09:18;;;;;;;31.52;7.90;;;3.90;99.90;;;;;;5053240;28;20112;-75
2024/03/17 02:11:44;;;;;;;25.58;7.00;;;3.90;99.90;;;;;;5054438;28;20013;-76
2024/03/17 02:14:10;;;;;;;31.90;7.68;;;3.90;99.90;;;;;;5052782;28;20097;-77
2024/03/17 02:16:36;;;;;;;33.15;7.50;;;3.90;99.90;;;;;;5053260;28;20085;-76
2024/03/17 02:19:02;;;;;;;34.22;7.05;;;3.90;99.90;;;;;;5054238;28;20100;-75
2024/03/17 02:21:27;;;;;;;26.33;6.63;;;3.90;99.90;;;;;;5054200;28;20024;-76
2024/03/17 02:23:53;;;;;;;32.00;7.47;;;3.80;99.90;;;;;;5052737;28;20017;-76
2024/03/17 02:26:20;;;;;;;31.58;6.88;;;3.80;99.90;;;;;;5054288;28;20117;-74
2024/03/17 02:28:46;;;;;;;35.38;7.20;;;3.80;99.90;;;;;;5053931;28;20169;-74
2024/03/17 02:31:14;;;;;;;30.08;7.60;;;3.80;99.90;;;;;;5076939;28;20021;-75
2024/03/17 02:33:39;;;;;;;32.13;7.45;;;3.80;99.90;;;;;;5053899;28;20047;-74
2024/03/17 02:36:12;;;;;;;32.40;7.35;;;3.80;99.90;;;;;;5052759;28;20405;-74
2024/03/17 02:41:26;;;;;;;24.55;7.07;;;3.70;99.90;;;;;;5054049;28;20035;-74
2024/03/17 02:43:52;;;;;;;30.80;7.82;;;3.70;99.90;;;;;;5053642;28;20054;-77
2024/03/17 02:46:18;;;;;;;37.55;8.10;;;3.70;99.90;;;;;;5052678;28;20098;-76
2024/03/17 02:48:49;;;;;;;35.85;8.00;;;3.70;99.90;;;;;;5052319;28;20037;-76
2024/03/17 02:51:16;;;;;;;37.30;8.60;;;3.70;99.90;;;;;;5053728;28;20025;-75
2024/03/17 02:53:44;;;;;;;35.03;7.70;;;3.70;99.90;;;;;;5052018;28;20164;-76
2024/03/17 02:56:10;;;;;;;21.90;6.85;;;3.60;99.90;;;;;;5052286;28;20018;-74
2024/03/17 02:58:37;;;;;;;35.55;7.07;;;3.60;99.90;;;;;;5052763;28;20106;-76
2024/03/17 03:01:04;;;;;;;28.95;7.20;;;3.60;99.90;;;;;;5052322;28;20032;-74
2024/03/17 03:03:33;;;;;;;31.35;7.78;;;3.50;99.90;;;;;;5052350;28;20049;-74
2024/03/17 03:06:03;;;;;;;23.77;6.93;;;3.50;99.90;;;;;;5053099;28;20048;-76
2024/03/17 03:08:29;;;;;;;34.42;8.02;;;3.50;99.90;;;;;;5053440;28;20521;-75
2024/03/17 03:10:56;;;;;;;41.85;8.13;;;3.50;99.90;;;;;;5051980;28;20060;-76
2024/03/17 03:13:22;;;;;;;37.17;7.93;;;3.50;99.90;;;;;;5053612;28;20037;-75
2024/03/17 03:15:48;;;;;;;30.38;8.15;;;3.40;99.90;;;;;;5052047;28;20041;-75
2024/03/17 03:18:14;;;;;;;33.42;8.18;;;3.30;99.90;;;;;;5052002;28;20056;-75
2024/03/17 03:20:40;;;;;;;25.00;7.50;;;3.20;99.90;;;;;;5051696;28;20021;-75
2024/03/17 03:23:06;;;;;;;29.45;8.30;;;3.20;99.90;;;;;;5051583;28;20035;-74
2024/03/17 03:25:32;;;;;;;32.55;7.68;;;3.20;99.90;;;;;;5051655;28;20028;-75
2024/03/17 03:27:57;;;;;;;33.42;8.15;;;3.20;99.90;;;;;;5051446;28;20116;-74
2024/03/17 03:30:24;;;;;;;23.85;7.15;;;3.10;99.90;;;;;;5052850;28;20022;-75
2024/03/17 03:32:50;;;;;;;29.23;6.97;;;3.10;99.90;;;;;;5052900;28;20040;-75
2024/03/17 03:35:15;;;;;;;35.58;8.48;;;3.10;99.90;;;;;;5051764;28;20029;-76
2024/03/17 03:37:42;;;;;;;33.40;7.60;;;3.10;99.90;;;;;;5052491;28;20086;-75
2024/03/17 03:40:17;;;;;;;32.80;7.97;;;3.10;99.90;;;;;;5051720;28;20017;-75
2024/03/17 03:42:44;;;;;;;21.45;8.18;;;3.10;99.90;;;;;;5053036;28;20036;-75
2024/03/17 03:45:12;;;;;;;37.03;7.32;;;3.10;99.90;;;;;;5052398;28;20128;-74
2024/03/17 03:47:42;;;;;;;38.88;7.80;;;3.10;99.90;;;;;;5052231;28;20137;-75
2024/03/17 03:50:11;;;;;;;27.75;7.40;;;3.10;99.90;;;;;;5051302;28;20048;-75
2024/03/17 03:52:38;;;;;;;22.58;7.70;;;3.10;99.90;;;;;;5052468;28;20051;-75
2024/03/17 03:55:10;;;;;;;29.23;7.68;;;3.10;99.90;;;;;;5050981;28;20032;-74
2024/03/17 03:57:36;;;;;;;35.13;9.07;;;3.10;99.90;;;;;;5051496;28;20026;-74
2024/03/17 04:00:12;;;;;;;31.95;8.73;;;3.10;99.90;;;;;;5050979;28;20040;-75
2024/03/17 04:02:41;;;;;;;35.50;9.15;;;3.10;99.90;;;;;;5050800;28;20041;-76
2024/03/17 04:05:08;;;;;;;38.22;9.15;;;3.10;99.90;;;;;;5052334;28;20474;-77
2024/03/17 04:07:34;;;;;;;31.20;9.32;;;3.10;99.90;;;;;;5051994;28;20069;-76
2024/03/17 04:10:00;;;;;;;32.10;9.27;;;3.00;99.90;;;;;;5051041;28;20018;-74
2024/03/17 04:12:27;;;;;;;33.97;8.52;;;3.10;99.90;;;;;;5051130;28;20028;-76
2024/03/17 04:14:53;;;;;;;33.45;9.38;;;3.00;99.90;;;;;;5052324;28;20122;-75
2024/03/17 04:17:23;;;;;;;27.52;8.77;;;3.00;99.90;;;;;;5034682;28;20049;-74
2024/03/17 04:19:50;;;;;;;33.83;8.98;;;3.00;99.90;;;;;;5050579;28;20056;-74
2024/03/17 04:22:16;;;;;;;30.73;9.52;;;3.00;99.90;;;;;;5051800;28;20041;-75
2024/03/17 04:24:46;;;;;;;43.58;9.90;;;3.00;99.90;;;;;;5051784;28;20764;-76
2024/03/17 04:27:13;;;;;;;35.63;10.57;;;3.00;99.90;;;;;;5051652;28;20468;-75
2024/03/17 04:29:39;;;;;;;36.70;10.90;;;3.00;99.90;;;;;;5050082;28;20025;-74
2024/03/17 04:32:05;;;;;;;36.25;9.80;;;2.90;99.90;;;;;;5051997;28;20022;-75
2024/03/17 04:34:31;;;;;;;30.25;9.05;;;2.90;99.90;;;;;;5051530;28;20033;-74
2024/03/17 04:36:57;;;;;;;25.00;8.07;;;2.90;99.90;;;;;;5051558;28;20030;-76
2024/03/17 04:39:24;;;;;;;33.33;9.18;;;2.90;99.90;;;;;;5052076;28;20025;-75
2024/03/17 04:41:50;;;;;;;28.95;8.80;;;2.90;99.90;;;;;;5051846;28;20017;-75
2024/03/17 04:44:16;;;;;;;30.98;9.15;;;2.90;99.90;;;;;;5051672;28;20068;-75
2024/03/17 04:46:41;;;;;;;24.08;8.82;;;2.90;99.90;;;;;;5051938;28;20040;-75
2024/03/17 04:49:08;;;;;;;28.50;8.45;;;2.90;99.90;;;;;;5049637;28;20022;-75
2024/03/17 04:51:34;;;;;;;24.90;8.38;;;2.80;99.90;;;;;;5051102;28;20025;-76
2024/03/17 04:54:00;;;;;;;27.20;8.73;;;2.80;99.90;;;;;;5051675;28;20389;-75
2024/03/17 04:56:26;;;;;;;30.67;8.95;;;2.80;99.90;;;;;;5051577;28;20100;-79
2024/03/17 04:58:51;;;;;;;26.55;8.70;;;2.80;99.90;;;;;;5049454;28;20025;-76
2024/03/17 05:01:17;;;;;;;23.65;8.80;;;2.80;99.90;;;;;;5051060;28;20029;-76
2024/03/17 05:03:42;;;;;;;24.60;8.50;;;2.80;99.90;;;;;;5051074;28;20033;-75
2024/03/17 05:06:08;;;;;;;34.00;8.57;;;2.90;99.90;;;;;;5052262;28;20692;-74
2024/03/17 05:08:34;;;;;;;24.42;8.30;;;2.90;99.90;;;;;;5051560;28;20085;-74
2024/03/17 05:11:05;;;;;;;34.58;7.85;;;2.90;99.90;;;;;;5050918;28;20029;-76
2024/03/17 05:13:31;;;;;;;21.52;7.63;;;2.90;99.90;;;;;;5050302;28;20086;-74
2024/03/17 05:15:57;;;;;;;24.25;7.97;;;2.90;99.90;;;;;;5049847;28;20427;-76
2024/03/17 05:18:25;;;;;;;21.48;7.63;;;2.90;99.90;;;;;;5050136;28;20036;-76
2024/03/17 05:21:05;;;;;;;19.77;7.30;;;2.90;99.90;;;;;;5049961;28;20032;-76
2024/03/17 05:23:32;;;;;;;20.13;8.02;;;2.90;99.90;;;;;;5050981;28;20029;-76
2024/03/17 05:25:58;;;;;;;21.00;8.32;;;2.80;99.90;;;;;;5050988;28;20022;-75
2024/03/17 05:28:26;;;;;;;17.83;7.45;;;2.80;99.90;;;;;;5051494;28;20071;-76
2024/03/17 05:30:52;;;;;;;21.60;7.65;;;2.80;99.90;;;;;;5049868;28;20033;-76
2024/03/17 05:33:21;;;;;;;21.05;7.68;;;2.80;99.90;;;;;;5051308;28;20048;-75
2024/03/17 05:35:52;;;;;;;21.77;8.48;;;2.70;99.90;;;;;;5049967;28;20393;-76
2024/03/17 05:38:22;;;;;;;19.90;7.45;;;2.70;99.90;;;;;;5051358;28;20039;-76
2024/03/17 05:41:02;;;;;;;18.40;7.95;;;2.70;99.90;;;;;;5048707;28;20046;-77
2024/03/17 05:43:29;;;;;;;19.42;7.90;;;2.70;99.90;;;;;;5053670;28;20059;-75
2024/03/17 05:46:00;;;;;;;17.83;7.70;;;2.80;99.90;;;;;;5054176;28;20022;-76
2024/03/17 05:48:27;;;;;;;22.67;8.48;;;2.80;99.90;;;;;;5053030;28;20041;-76
2024/03/17 05:50:53;;;;;;;22.02;8.43;;;2.70;99.90;;;;;;5054445;28;20025;-74
2024/03/17 05:53:19;;;;;;;18.75;8.18;;;2.70;99.90;;;;;;5053341;28;20030;-74
2024/03/17 05:55:45;;;;;;;19.00;8.05;;;2.70;99.90;;;;;;5055058;28;20037;-76
2024/03/17 05:58:11;;;;;;;21.67;8.63;;;2.70;99.90;;;;;;5053786;28;20036;-74
2024/03/17 06:00:41;;;;;;;20.95;7.82;;;2.70;99.90;;;;;;5054171;28;20022;-76
2024/03/17 06:03:07;;;;;;;29.15;8.27;;;2.80;99.90;;;;;;5054804;28;20079;-75
2024/03/17 06:05:38;;;;;;;28.77;8.50;;;2.80;99.90;;;;;;5053613;28;20047;-75
2024/03/17 06:08:05;;;;;;;21.08;9.20;;;2.80;99.90;;;;;;5054081;28;20029;-76
2024/03/17 06:10:32;;;;;;;21.30;8.50;;;2.80;99.90;;;;;;5054342;28;20027;-74
2024/03/17 06:12:58;;;;;;;19.60;8.25;;;2.70;99.90;;;;;;5053757;28;20029;-75
2024/03/17 06:15:24;;;;;;;27.77;8.55;;;2.70;99.90;;;;;;5053884;28;20031;-77
2024/03/17 06:17:54;;;;;;;26.67;8.70;;;2.70;99.90;;;;;;5052983;28;20040;-76
2024/03/17 06:20:21;;;;;;;22.00;8.57;;;2.80;99.90;;;;;;5055235;28;20048;-75
2024/03/17 06:22:47;;;;;;;20.33;8.85;;;2.80;99.90;;;;;;5053961;28;20121;-75
2024/03/17 06:25:13;;;;;;;23.33;8.98;;;2.80;99.90;;;;;;5053903;28;20033;-75
2024/03/17 06:27:39;;;;;;;20.17;9.07;;;2.90;99.90;;;;;;5054304;28;20089;-75
2024/03/17 06:30:06;;;;;;;20.35;9.95;;;2.90;99.90;;;;;;5052262;28;20064;-77
2024/03/17 06:32:35;;;;;;;24.77;10.35;;;3.00;99.90;;;;;;5054413;28;20045;-75
2024/03/17 06:35:04;;;;;;;37.17;10.30;;;3.00;99.90;;;;;;5053043;28;20112;-76
2024/03/17 06:37:30;;;;;;;27.10;10.77;;;3.00;99.90;;;;;;5053922;28;20029;-75
2024/03/17 06:39:56;;;;;;;21.75;10.60;;;3.10;99.90;;;;;;5053265;28;21318;-76
2024/03/17 06:42:21;;;;;;;25.33;11.45;;;3.20;99.90;;;;;;5054377;28;20022;-74
2024/03/17 06:44:47;;;;;;;28.27;12.00;;;3.20;99.90;;;;;;5053118;28;20021;-75
2024/03/17 06:47:13;;;;;;;45.63;12.68;;;3.30;99.90;;;;;;5053770;28;20025;-75
2024/03/17 06:49:38;;;;;;;35.15;12.38;;;3.30;99.90;;;;;;5051855;28;20040;-77
2024/03/17 06:52:04;;;;;;;26.65;11.02;;;3.40;99.90;;;;;;5054186;28;20021;-76
2024/03/17 06:54:32;;;;;;;39.83;11.15;;;3.40;99.90;;;;;;5051975;28;20574;-77
2024/03/17 06:56:57;;;;;;;36.05;10.88;;;3.50;99.90;;;;;;5052575;28;20112;-75
2024/03/17 06:59:23;;;;;;;69.50;11.57;;;3.60;99.90;;;;;;5052515;28;20075;-76
2024/03/17 07:01:50;;;;;;;201.10;13.52;;;3.60;99.90;;;;;;5053767;28;20132;-77
2024/03/17 07:04:16;;;;;;;127.20;12.02;;;3.70;99.90;;;;;;5053669;28;20036;-75
2024/03/17 07:06:42;;;;;;;410.15;21.00;;;3.70;99.90;;;;;;5053400;28;20020;-75
2024/03/17 07:09:08;;;;;;;264.38;13.10;;;3.80;99.90;;;;;;5054160;28;20022;-75
2024/03/17 07:11:34;;;;;;;196.18;12.38;;;3.80;99.90;;;;;;5052346;28;20057;-75
2024/03/17 07:14:00;;;;;;;172.77;13.43;;;3.80;99.90;;;;;;5052223;28;20492;-77
2024/03/17 07:16:25;;;;;;;125.75;12.45;;;3.90;99.90;;;;;;5053974;28;20162;-76
2024/03/17 07:18:56;;;;;;;84.13;12.20;;;4.00;99.90;;;;;;5054310;28;20025;-75
2024/03/17 07:21:22;;;;;;;66.38;9.90;;;4.00;99.90;;;;;;5054098;28;20014;-77
2024/03/17 07:23:48;;;;;;;59.85;9.38;;;4.10;99.90;;;;;;5052356;28;20048;-76
2024/03/17 07:26:14;;;;;;;100.15;9.38;;;4.20;99.90;;;;;;5053203;28;20091;-76
2024/03/17 07:28:40;;;;;;;89.68;9.10;;;4.30;99.90;;;;;;5052767;28;20025;-76
2024/03/17 07:31:08;;;;;;;53.15;9.45;;;4.40;99.90;;;;;;5051015;28;20021;-75
2024/03/17 07:33:34;;;;;;;106.68;10.35;;;4.50;99.90;;;;;;5075338;28;20033;-76
2024/03/17 07:36:00;;;;;;;18.38;8.35;;;4.50;99.90;;;;;;5051982;28;20035;-76
2024/03/17 07:38:27;;;;;;;18.95;9.05;;;4.60;99.90;;;;;;5052014;28;20049;-76
2024/03/17 07:41:00;;;;;;;16.15;8.77;;;4.70;99.90;;;;;;5051722;28;20121;-76
2024/03/17 07:43:26;;;;;;;12.68;8.48;;;4.80;99.90;;;;;;5052060;28;20033;-76
2024/03/17 07:45:59;;;;;;;21.02;9.88;;;4.80;99.90;;;;;;5053285;28;20035;-77
2024/03/17 07:48:24;;;;;;;18.73;9.88;;;4.80;99.90;;;;;;5052658;28;20037;-76
2024/03/17 07:50:58;;;;;;;20.77;9.07;;;4.80;99.90;;;;;;5052924;28;20025;-77
2024/03/17 07:53:24;;;;;;;20.17;9.18;;;4.80;99.90;;;;;;5075234;28;20156;-76
2024/03/17 07:56:00;;;;;;;21.25;9.65;;;4.90;99.90;;;;;;5077120;28;20025;-77
2024/03/17 07:58:27;;;;;;;22.38;10.02;;;5.20;99.90;;;;;;5053359;28;20108;-76
2024/03/17 08:00:56;;;;;;;23.70;9.68;;;5.50;99.90;;;;;;5052126;28;20069;-77
2024/03/17 08:03:22;;;;;;;26.90;9.80;;;5.70;99.90;;;;;;5053222;28;20087;-77
2024/03/17 08:05:49;;;;;;;20.58;8.20;;;5.90;99.90;;;;;;5050686;28;20029;-77
2024/03/17 08:08:15;;;;;;;22.10;8.45;;;6.10;99.90;;;;;;5053851;28;20110;-76
2024/03/17 08:10:41;;;;;;;22.33;8.90;;;6.20;99.90;;;;;;5053261;28;20366;-77
2024/03/17 08:13:08;;;;;;;25.80;9.15;;;6.20;99.90;;;;;;5050744;28;20092;-76
2024/03/17 08:15:34;;;;;;;23.13;9.10;;;6.30;99.90;;;;;;5051998;28;20026;-76
2024/03/17 08:18:00;;;;;;;21.13;8.35;;;6.40;99.90;;;;;;5053222;28;20068;-77
2024/03/17 08:20:25;;;;;;;23.50;9.27;;;6.50;99.90;;;;;;5052387;28;20036;-77
2024/03/17 08:22:51;;;;;;;26.05;8.70;;;6.60;99.90;;;;;;5053639;28;20029;-77
2024/03/17 08:25:17;;;;;;;23.08;9.52;;;6.60;99.90;;;;;;5051925;28;20025;-76
2024/03/17 08:27:43;;;;;;;21.33;8.68;;;6.80;99.90;;;;;;5052758;28;20033;-76
2024/03/17 08:30:13;;;;;;;25.83;9.18;;;6.90;99.90;;;;;;5052448;28;20025;-78
2024/03/17 08:32:39;;;;;;;24.45;8.98;;;7.00;99.90;;;;;;5051609;28;20025;-75
2024/03/17 08:35:06;;;;;;;25.27;8.80;;;7.10;99.90;;;;;;5053673;28;20095;-75
2024/03/17 08:37:31;;;;;;;21.90;8.82;;;7.10;99.90;;;;;;5053482;28;20035;-77
2024/03/17 08:39:57;;;;;;;24.45;8.43;;;7.20;99.90;;;;;;5051328;28;20100;-77
2024/03/17 08:42:22;;;;;;;23.90;7.50;;;7.40;99.90;;;;;;5051951;28;20094;-78
2024/03/17 08:44:48;;;;;;;25.27;8.50;;;7.50;99.90;;;;;;5053949;28;20022;-76
2024/03/17 08:47:14;;;;;;;25.17;7.90;;;7.70;99.90;;;;;;5052555;28;20029;-76
2024/03/17 08:49:39;;;;;;;29.75;7.22;;;7.80;99.90;;;;;;5050357;28;20696;-76
2024/03/17 08:52:05;;;;;;;30.45;8.43;;;8.00;99.90;;;;;;5051491;28;20104;-77
2024/03/17 08:54:30;;;;;;;30.33;8.23;;;8.10;99.90;;;;;;5051996;28;20033;-76
2024/03/17 08:56:56;;;;;;;24.60;8.15;;;8.30;99.90;;;;;;5053114;28;20071;-78
2024/03/17 08:59:22;;;;;;;26.77;7.70;;;8.30;99.90;;;;;;5051922;28;20021;-76
2024/03/17 09:01:47;;;;;;;26.98;8.00;;;8.30;99.90;;;;;;5052481;28;20068;-76
2024/03/17 09:04:13;;;;;;;27.33;6.60;;;8.40;99.90;;;;;;5051382;28;20450;-77
2024/03/17 09:06:38;;;;;;;24.40;7.65;;;8.30;99.90;;;;;;5052295;28;20034;-75
2024/03/17 09:09:06;;;;;;;25.73;8.32;;;8.40;99.90;;;;;;5074541;28;20029;-76
2024/03/17 09:11:31;;;;;;;21.13;7.88;;;8.60;99.90;;;;;;5051135;28;20049;-77
2024/03/17 09:13:58;;;;;;;27.20;8.30;;;8.80;99.90;;;;;;5052788;28;20048;-77
2024/03/17 09:16:25;;;;;;;21.23;7.85;;;9.10;99.90;;;;;;5053931;28;20021;-76
2024/03/17 09:18:51;;;;;;;22.65;8.77;;;9.20;99.90;;;;;;5059277;28;20025;-76
2024/03/17 09:21:19;;;;;;;26.52;6.55;;;9.30;99.90;;;;;;5058496;28;20053;-76
2024/03/17 09:23:46;;;;;;;24.15;6.72;;;9.50;99.90;;;;;;5059014;28;20128;-75
2024/03/17 09:26:13;;;;;;;17.33;6.15;;;9.60;99.90;;;;;;5058668;28;20033;-78
2024/03/17 09:28:39;;;;;;;25.48;6.63;;;9.70;99.90;;;;;;5059336;28;20477;-75
2024/03/17 09:31:06;;;;;;;19.73;7.43;;;9.70;99.90;;;;;;5059559;28;20033;-76
2024/03/17 09:33:33;;;;;;;21.42;6.28;;;9.70;99.90;;;;;;5058363;28;20037;-76
2024/03/17 09:36:07;;;;;;;21.73;6.28;;;9.80;99.90;;;;;;5058206;28;20089;-78
2024/03/17 09:38:34;;;;;;;20.70;7.15;;;10.00;99.90;;;;;;5058002;28;20029;-76
2024/03/17 09:41:00;;;;;;;22.17;6.53;;;10.30;99.90;;;;;;5058744;28;20554;-77
2024/03/17 09:43:33;;;;;;;21.90;6.45;;;10.40;99.90;;;;;;5058829;28;20510;-76
2024/03/17 09:45:58;;;;;;;17.50;6.32;;;10.60;99.90;;;;;;5058528;28;20018;-76
2024/03/17 09:48:28;;;;;;;18.42;5.30;;;10.90;99.90;;;;;;5056627;28;20043;-75
2024/03/17 09:50:59;;;;;;;22.13;6.10;;;11.00;99.90;;;;;;5055324;28;20032;-76
2024/03/17 09:53:27;;;;;;;23.17;5.30;;;11.10;99.90;;;;;;5056140;28;20501;-75
2024/03/17 09:55:57;;;;;;;20.95;5.35;;;11.00;99.90;;;;;;5058256;28;20466;-76
2024/03/17 09:58:22;;;;;;;18.33;5.32;;;10.90;99.90;;;;;;5056699;28;20111;-77
2024/03/17 10:00:48;;;;;;;22.63;4.95;;;10.90;99.90;;;;;;5058214;28;20064;-75
2024/03/17 10:03:42;;;;;;;19.25;4.43;;;10.90;99.90;;;;;;5056789;28;20048;-76
2024/03/17 10:06:11;;;;;;;17.13;4.45;;;11.00;99.90;;;;;;5077949;28;20033;-74
2024/03/17 10:08:51;;;;;;;17.15;4.75;;;11.10;99.90;;;;;;5059388;28;20121;-75
2024/03/17 10:11:19;;;;;;;19.80;4.28;;;11.30;99.90;;;;;;5057531;28;20033;-75
2024/03/17 10:13:45;;;;;;;15.15;4.38;;;11.40;99.90;;;;;;5056938;28;20037;-75
2024/03/17 10:16:24;;;;;;;18.77;4.22;;;11.60;99.90;;;;;;5057062;28;20059;-74
2024/03/17 10:19:04;;;;;;;13.75;3.88;;;12.00;99.90;;;;;;5057869;28;20055;-76
2024/03/17 10:21:30;;;;;;;10.55;2.85;;;12.30;99.90;;;;;;5057152;28;20041;-76
2024/03/17 10:24:13;;;;;;;17.15;3.60;;;12.60;99.90;;;;;;5056515;28;20033;-76
2024/03/17 10:26:46;;;;;;;12.50;3.25;;;12.80;99.90;;;;;;5056711;28;20136;-75
2024/03/17 10:29:26;;;;;;;17.27;3.75;;;13.00;99.90;;;;;;5049638;28;20040;-77
2024/03/17 10:32:01;;;;;;;15.02;3.72;;;13.20;99.90;;;;;;5052937;28;20037;-74
2024/03/17 10:34:34;;;;;;;13.65;4.00;;;13.30;99.90;;;;;;5051435;28;20045;-75
2024/03/17 10:37:15;;;;;;;11.60;3.40;;;13.50;99.90;;;;;;5052277;28;20028;-77
2024/03/17 10:39:42;;;;;;;13.63;3.97;;;13.60;99.90;;;;;;5052251;28;20029;-73
2024/03/17 10:42:13;;;;;;;16.30;4.15;;;13.60;99.90;;;;;;5052728;28;20021;-74
2024/03/17 10:44:45;;;;;;;14.05;3.60;;;13.60;99.90;;;;;;5053745;28;20392;-74
2024/03/17 10:47:20;;;;;;;16.73;3.88;;;13.40;99.90;;;;;;5054230;28;20037;-73
2024/03/17 10:49:49;;;;;;;14.40;3.83;;;13.20;99.90;;;;;;5054278;28;20583;-76
2024/03/17 10:52:18;;;;;;;13.02;3.53;;;13.10;99.90;;;;;;5076300;28;20364;-75
2024/03/17 10:54:54;;;;;;;18.65;3.78;;;12.80;99.90;;;;;;5054796;28;20121;-75
2024/03/17 10:57:35;;;;;;;15.20;3.80;;;12.80;99.90;;;;;;5053472;28;20059;-76
2024/03/17 11:00:04;;;;;;;14.10;3.65;;;12.90;99.90;;;;;;5053126;28;20120;-74
2024/03/17 11:02:32;;;;;;;12.48;3.47;;;13.10;99.90;;;;;;5051783;28;20052;-74
2024/03/17 11:05:21;;;;;;;13.93;4.20;;;13.20;99.90;;;;;;5053000;28;20025;-74
2024/03/17 11:07:48;;;;;;;11.30;3.30;;;13.20;99.90;;;;;;5053861;28;20045;-77
2024/03/17 11:10:23;;;;;;;17.08;4.38;;;13.30;99.90;;;;;;5053734;28;20025;-73
2024/03/17 11:13:00;;;;;;;16.27;4.18;;;13.60;99.90;;;;;;5053622;28;20109;-76
2024/03/17 11:15:37;;;;;;;14.73;3.70;;;13.60;99.90;;;;;;5053179;28;20038;-76
2024/03/17 11:18:12;;;;;;;13.55;3.60;;;13.90;99.90;;;;;;5074682;28;20044;-74
2024/03/17 11:21:07;;;;;;;15.27;3.90;;;14.20;99.90;;;;;;5051727;28;20028;-78
2024/03/17 11:23:43;;;;;;;11.93;3.22;;;14.10;99.90;;;;;;5045033;28;20045;-75
2024/03/17 11:26:12;;;;;;;13.35;3.45;;;14.20;99.90;;;;;;5054916;28;20061;-74
2024/03/17 11:28:41;;;;;;;13.00;3.10;;;14.40;99.90;;;;;;5053933;28;20104;-75
2024/03/17 11:31:46;;;;;;;12.40;3.20;;;14.60;99.90;;;;;;5070919;28;20040;-76
2024/03/17 11:34:32;;;;;;;14.20;3.37;;;14.60;99.90;;;;;;5051386;28;20065;-73
2024/03/17 11:36:59;;;;;;;17.52;3.38;;;14.50;99.90;;;;;;5051143;28;20061;-75
2024/03/17 11:40:08;;;;;;;12.93;3.00;;;14.40;99.90;;;;;;5052135;28;20097;-77
2024/03/17 11:42:34;;;;;;;11.18;2.97;;;14.20;99.90;;;;;;5073450;28;20025;-74
2024/03/17 11:45:09;;;;;;;13.30;3.13;;;13.80;99.90;;;;;;5051256;28;20057;-76
2024/03/17 11:47:39;;;;;;;13.88;2.70;;;13.60;99.90;;;;;;5051600;28;20083;-74
2024/03/17 11:50:09;;;;;;;11.95;2.90;;;13.50;99.90;;;;;;5050265;28;20044;-74
2024/03/17 11:52:35;;;;;;;11.75;2.95;;;13.50;99.90;;;;;;5051912;28;20029;-76
2024/03/17 11:55:01;;;;;;;8.35;3.20;;;13.50;99.90;;;;;;5053355;28;20043;-75
2024/03/17 11:57:27;;;;;;;10.27;2.70;;;13.50;99.90;;;;;;5054938;28;20068;-74
2024/03/17 11:59:54;;;;;;;13.27;3.53;;;13.40;99.90;;;;;;5053526;28;20033;-74
2024/03/17 12:02:21;;;;;;;17.83;3.63;;;13.30;99.90;;;;;;5052751;28;20040;-76
2024/03/17 12:04:48;;;;;;;10.00;3.42;;;13.30;99.90;;;;;;5053504;28;20052;-75
2024/03/17 12:07:16;;;;;;;15.32;3.80;;;13.10;99.90;;;;;;5053668;28;20022;-73
2024/03/17 12:09:42;;;;;;;8.93;2.80;;;13.20;99.90;;;;;;5049418;28;20036;-74
2024/03/17 12:12:10;;;;;;;13.70;3.30;;;13.20;99.90;;;;;;5052092;28;20020;-72
2024/03/17 12:14:37;;;;;;;15.48;3.78;;;13.10;99.90;;;;;;5048427;28;20036;-74
2024/03/17 12:17:09;;;;;;;12.07;3.05;;;13.00;99.90;;;;;;5052259;28;20057;-73
2024/03/17 12:19:35;;;;;;;17.85;3.33;;;12.90;99.90;;;;;;5041129;28;20067;-75
2024/03/17 12:22:04;;;;;;;14.05;3.53;;;12.70;99.90;;;;;;5046538;28;20789;-73
2024/03/17 12:24:33;;;;;;;11.15;3.10;;;12.70;99.90;;;;;;5053973;28;20047;-76
2024/03/17 12:27:00;;;;;;;15.63;3.63;;;12.70;99.90;;;;;;5052766;28;20026;-76
2024/03/17 12:29:27;;;;;;;13.65;3.40;;;12.80;99.90;;;;;;5052303;28;20556;-73
2024/03/17 12:31:55;;;;;;;18.08;4.07;;;12.90;99.90;;;;;;5051086;28;20063;-75
2024/03/17 12:34:22;;;;;;;13.20;2.92;;;12.90;99.90;;;;;;5072861;28;20045;-75
2024/03/17 12:36:49;;;;;;;12.82;3.28;;;12.90;99.90;;;;;;5050872;28;20040;-74
2024/03/17 12:39:20;;;;;;;11.38;3.38;;;12.70;99.90;;;;;;5050737;28;20048;-73
2024/03/17 12:42:04;;;;;;;9.13;2.80;;;12.70;99.90;;;;;;5052800;28;20164;-75
2024/03/17 12:44:31;;;;;;;11.85;3.30;;;12.80;99.90;;;;;;5051048;28;20102;-74
2024/03/17 12:47:00;;;;;;;13.25;2.83;;;13.00;99.90;;;;;;5050446;28;20025;-75
2024/03/17 12:49:27;;;;;;;12.35;3.22;;;13.30;99.90;;;;;;5052440;28;20059;-74
2024/03/17 12:51:54;;;;;;;13.95;3.80;;;13.50;99.90;;;;;;5051223;28;20052;-75